Time;durP1;ratioP1;P1;durP2;ratioP2;P2;SDS_P1;SDS_P2;PMS_P1;PMS_P2;Temp;Humidity;BMP_temperature;BMP_pressure;BME280_temperature;BME280_humidity;BME280_pressure;Samples;Min_cycle;Max_cycle;Signal;HPM_P1;HPM_P2
2023/09/14 00:00:44;;;;;;;;;;;;;;;19.24;61.61;101491.84;4170564;28;20011;-67
2023/09/14 00:02:46;;;;;;;;;;;;;;;19.24;61.85;101489.13;4171194;28;20395;-66
2023/09/14 00:04:48;;;;;;;;;;;;;;;19.25;62.13;101489.97;4172012;28;20063;-67
2023/09/14 00:06:50;;;;;;;;;;;;;;;19.24;62.14;101489.13;4171911;28;20011;-66
2023/09/14 00:08:53;;;;;;;;;;;;;;;19.24;62.09;101488.28;4171710;28;20012;-65
2023/09/14 00:10:56;;;;;;;;;;;;;;;19.23;62.17;101490.19;4171566;28;20020;-67
2023/09/14 00:12:58;;;;;;;;;;;;;;;19.22;62.21;101490.41;4171700;28;20012;-65
2023/09/14 00:15:02;;;;;;;;;;;;;;;19.22;62.38;101490.41;4171033;28;20516;-66
2023/09/14 00:17:06;;;;;;;;;;;;;;;19.21;62.57;101492.28;4171158;28;20028;-67
2023/09/14 00:19:08;;;;;;;;;;;;;;;19.22;62.51;101498.63;4172214;28;20017;-67
2023/09/14 00:21:10;;;;;;;;;;;;;;;19.22;62.61;101484.94;4171009;28;20473;-67
2023/09/14 00:23:12;;;;;;;;;;;;;;;19.21;62.69;101494.19;4171564;28;20035;-67
2023/09/14 00:25:14;;;;;;;;;;;;;;;19.20;62.84;101501.56;4168991;28;20371;-66
2023/09/14 00:27:15;;;;;;;;;;;;;;;19.17;62.89;101495.66;4170881;28;20031;-67
2023/09/14 00:29:17;;;;;;;;;;;;;;;19.17;63.07;101492.94;4170209;28;20019;-67
2023/09/14 00:31:21;;;;;;;;;;;;;;;19.16;63.05;101494.84;4176215;28;20351;-66
2023/09/14 00:33:22;;;;;;;;;;;;;;;19.18;63.24;101500.09;4170162;28;20461;-67
2023/09/14 00:35:24;;;;;;;;;;;;;;;19.17;63.23;101501.16;4170809;28;19941;-67
2023/09/14 00:37:26;;;;;;;;;;;;;;;19.16;63.26;101500.31;4176722;28;20023;-66
2023/09/14 00:39:27;;;;;;;;;;;;;;;19.16;63.22;101508.53;4171214;28;20012;-66
2023/09/14 00:41:29;;;;;;;;;;;;;;;19.14;63.47;101509.78;4186095;28;20023;-66
2023/09/14 00:43:31;;;;;;;;;;;;;;;19.12;63.47;101512.75;4177460;28;20023;-64
2023/09/14 00:45:32;;;;;;;;;;;;;;;19.12;63.38;101507.28;4171015;28;20027;-65
2023/09/14 00:47:36;;;;;;;;;;;;;;;19.09;63.36;101508.56;4170485;28;20430;-66
2023/09/14 00:49:38;;;;;;;;;;;;;;;19.08;63.55;101509.59;4169944;28;20023;-65
2023/09/14 00:51:40;;;;;;;;;;;;;;;19.11;63.34;101511.09;4170663;28;20023;-67
2023/09/14 00:53:43;;;;;;;;;;;;;;;19.09;63.58;101511.28;4170525;28;20027;-67
2023/09/14 00:55:45;;;;;;;;;;;;;;;19.08;63.48;101512.34;4170668;28;20379;-67
2023/09/14 00:57:47;;;;;;;;;;;;;;;19.08;63.43;101514.25;4171137;28;20422;-67
2023/09/14 00:59:49;;;;;;;;;;;;;;;19.07;63.72;101513.41;4171106;28;20024;-66
2023/09/14 01:01:51;;;;;;;;;;;;;;;19.05;63.58;101515.50;4184856;28;20011;-66
2023/09/14 01:03:55;;;;;;;;;;;;;;;19.04;63.58;101521.19;4169630;28;20397;-65
2023/09/14 01:05:58;;;;;;;;;;;;;;;19.04;63.72;101513.84;4169162;28;20040;-66
2023/09/14 01:08:00;;;;;;;;;;;;;;;19.06;63.98;101519.13;4171176;28;20035;-66
2023/09/14 01:10:01;;;;;;;;;;;;;;;19.04;63.86;101515.72;4170418;28;19929;-66
2023/09/14 01:12:04;;;;;;;;;;;;;;;19.03;63.78;101523.09;4186206;28;20031;-66
2023/09/14 01:14:10;;;;;;;;;;;;;;;19.02;63.79;101518.69;4171074;28;20059;-66
2023/09/14 01:16:16;;;;;;;;;;;;;;;19.02;63.69;101515.94;4176744;28;19935;-65
2023/09/14 01:18:20;;;;;;;;;;;;;;;19.00;63.96;101512.59;4176921;28;20023;-66
2023/09/14 01:20:31;;;;;;;;;;;;;;;18.99;64.00;101508.16;4170758;28;20377;-68
2023/09/14 01:22:36;;;;;;;;;;;;;;;18.99;63.98;101512.78;4170647;28;20471;-67
2023/09/14 01:24:38;;;;;;;;;;;;;;;18.97;63.90;101510.28;4185180;28;20541;-66
2023/09/14 01:26:42;;;;;;;;;;;;;;;18.98;63.99;101508.38;4170563;28;20027;-65
2023/09/14 01:28:44;;;;;;;;;;;;;;;18.97;63.94;101513.00;4186010;28;20497;-66
2023/09/14 01:30:46;;;;;;;;;;;;;;;18.95;63.93;101517.88;4185383;28;20023;-66
2023/09/14 01:32:48;;;;;;;;;;;;;;;18.94;63.93;101516.19;4168418;28;20015;-66
2023/09/14 01:34:50;;;;;;;;;;;;;;;18.92;63.98;101518.28;4176124;28;20019;-66
2023/09/14 01:36:54;;;;;;;;;;;;;;;18.89;64.05;101522.28;4163037;28;20373;-66
2023/09/14 01:38:55;;;;;;;;;;;;;;;18.89;64.14;101516.81;4173994;28;20036;-65
2023/09/14 01:40:58;;;;;;;;;;;;;;;18.89;64.10;101524.19;4172761;28;20031;-66
2023/09/14 01:43:01;;;;;;;;;;;;;;;18.89;64.02;101524.19;4179005;28;20011;-66
2023/09/14 01:45:04;;;;;;;;;;;;;;;18.89;64.05;101524.19;4173080;28;20785;-66
2023/09/14 01:47:05;;;;;;;;;;;;;;;18.89;64.03;101526.94;4172451;28;20031;-66
2023/09/14 01:49:07;;;;;;;;;;;;;;;18.89;64.27;101529.66;4179258;28;20032;-66
2023/09/14 01:51:09;;;;;;;;;;;;;;;18.87;64.06;101521.66;4171688;28;20015;-65
2023/09/14 01:53:10;;;;;;;;;;;;;;;18.86;64.32;101519.97;4172952;28;20024;-66
2023/09/14 01:55:13;;;;;;;;;;;;;;;18.86;64.24;101528.19;4179054;28;20024;-66
2023/09/14 01:57:16;;;;;;;;;;;;;;;18.84;64.20;101521.19;4179463;28;19929;-66
2023/09/14 01:59:21;;;;;;;;;;;;;;;18.84;64.37;101522.09;4171548;28;20020;-66
2023/09/14 02:01:23;;;;;;;;;;;;;;;18.83;64.29;101534.06;4188166;28;20453;-66
2023/09/14 02:03:26;;;;;;;;;;;;;;;18.83;64.25;101528.59;4179724;28;20024;-66
2023/09/14 02:05:29;;;;;;;;;;;;;;;18.79;64.49;101530.06;4188312;28;20443;-65
2023/09/14 02:07:30;;;;;;;;;;;;;;;18.78;64.03;101528.38;4188454;28;20023;-66
2023/09/14 02:09:32;;;;;;;;;;;;;;;18.75;64.43;101530.72;4173240;28;20024;-66
2023/09/14 02:11:34;;;;;;;;;;;;;;;18.72;64.27;101519.13;4188652;28;20042;-66
2023/09/14 02:13:37;;;;;;;;;;;;;;;18.71;64.47;101525.66;4188231;28;20011;-66
2023/09/14 02:15:39;;;;;;;;;;;;;;;18.69;64.50;101530.50;4179110;28;20015;-65
2023/09/14 02:17:42;;;;;;;;;;;;;;;18.69;64.40;101527.75;4173870;28;19925;-67
2023/09/14 02:19:44;;;;;;;;;;;;;;;18.67;64.64;101532.59;4173264;28;20067;-67
2023/09/14 02:21:45;;;;;;;;;;;;;;;18.66;64.71;101525.44;4188291;28;20406;-66
2023/09/14 02:23:48;;;;;;;;;;;;;;;18.63;64.53;101531.34;4188508;28;20015;-66
2023/09/14 02:25:49;;;;;;;;;;;;;;;18.61;64.74;101533.44;4173118;28;20020;-66
2023/09/14 02:27:51;;;;;;;;;;;;;;;18.58;64.42;101527.56;4173711;28;20032;-66
2023/09/14 02:29:53;;;;;;;;;;;;;;;18.54;64.62;101535.34;4173500;28;20015;-66
2023/09/14 02:31:55;;;;;;;;;;;;;;;18.51;64.54;101535.75;4178878;28;21031;-66
2023/09/14 02:33:57;;;;;;;;;;;;;;;18.48;64.82;101533.44;4173371;28;20438;-66
2023/09/14 02:35:59;;;;;;;;;;;;;;;18.46;64.81;101535.53;4173926;28;20012;-65
2023/09/14 02:38:02;;;;;;;;;;;;;;;18.45;64.80;101540.19;4173294;28;19928;-66
2023/09/14 02:40:08;;;;;;;;;;;;;;;18.45;64.67;101539.31;4171086;28;20031;-66
2023/09/14 02:42:09;;;;;;;;;;;;;;;18.42;64.48;101547.97;4173303;28;20024;-65
2023/09/14 02:44:11;;;;;;;;;;;;;;;18.37;64.76;101549.44;4173109;28;20452;-67
2023/09/14 02:46:13;;;;;;;;;;;;;;;18.36;64.77;101545.00;4173172;28;20019;-66
2023/09/14 02:48:16;;;;;;;;;;;;;;;18.34;64.85;101549.03;4172472;28;20028;-66
2023/09/14 02:50:17;;;;;;;;;;;;;;;18.32;64.90;101549.22;4171202;28;20027;-65
2023/09/14 02:52:19;;;;;;;;;;;;;;;18.30;64.83;101554.03;4187908;28;20012;-66
2023/09/14 02:54:21;;;;;;;;;;;;;;;18.29;64.98;101554.25;4187498;28;20019;-66
2023/09/14 02:56:23;;;;;;;;;;;;;;;18.26;64.92;101563.75;4178320;28;20028;-66
2023/09/14 02:58:25;;;;;;;;;;;;;;;18.24;64.88;101565.81;4172927;28;19979;-66
2023/09/14 03:00:27;;;;;;;;;;;;;;;18.22;65.21;101567.09;4178323;28;20008;-67
2023/09/14 03:02:29;;;;;;;;;;;;;;;18.21;65.10;101570.88;4171696;28;20011;-65
2023/09/14 03:04:33;;;;;;;;;;;;;;;18.17;65.20;101567.72;4170750;28;20430;-66
2023/09/14 03:06:35;;;;;;;;;;;;;;;18.13;65.08;101564.53;4187234;28;20023;-66
2023/09/14 03:08:37;;;;;;;;;;;;;;;18.11;65.09;101565.81;4171123;28;20011;-67
2023/09/14 03:10:42;;;;;;;;;;;;;;;18.08;65.26;101556.13;4170108;28;20031;-66
2023/09/14 03:12:44;;;;;;;;;;;;;;;18.05;65.48;101564.72;4172282;28;20011;-66
2023/09/14 03:14:46;;;;;;;;;;;;;;;18.05;65.24;101569.38;4173311;28;20012;-65
2023/09/14 03:16:49;;;;;;;;;;;;;;;18.04;65.24;101567.66;4187946;28;20036;-65
2023/09/14 03:18:52;;;;;;;;;;;;;;;18.00;65.26;101570.81;4187404;28;19978;-66
2023/09/14 03:20:55;;;;;;;;;;;;;;;17.98;65.25;101574.81;4172390;28;20019;-66
2023/09/14 03:22:58;;;;;;;;;;;;;;;17.95;65.17;101569.78;4187767;28;20019;-66
2023/09/14 03:25:01;;;;;;;;;;;;;;;17.94;65.31;101571.63;4187246;28;20007;-66
2023/09/14 03:27:03;;;;;;;;;;;;;;;17.92;65.46;101570.19;4178393;28;20383;-66
2023/09/14 03:29:06;;;;;;;;;;;;;;;17.90;65.44;101583.19;4171668;28;20020;-66
2023/09/14 03:31:07;;;;;;;;;;;;;;;17.88;65.42;101577.91;4171694;28;20447;-65
2023/09/14 03:33:10;;;;;;;;;;;;;;;17.86;65.39;101584.63;4170950;28;20019;-67
2023/09/14 03:35:12;;;;;;;;;;;;;;;17.83;65.41;101580.41;4172424;28;20471;-66
2023/09/14 03:37:15;;;;;;;;;;;;;;;17.81;65.60;101582.50;4171294;28;20413;-66
2023/09/14 03:39:17;;;;;;;;;;;;;;;17.79;65.44;101588.19;4170758;28;19929;-66
2023/09/14 03:41:19;;;;;;;;;;;;;;;17.76;65.71;101590.47;4171304;28;20368;-66
2023/09/14 03:43:21;;;;;;;;;;;;;;;17.76;65.67;101596.78;4187543;28;20024;-66
2023/09/14 03:45:24;;;;;;;;;;;;;;;17.72;65.80;101592.75;4186925;28;20031;-66
2023/09/14 03:47:25;;;;;;;;;;;;;;;17.72;65.78;101595.50;4171610;28;20023;-66
2023/09/14 03:49:27;;;;;;;;;;;;;;;17.68;65.68;101596.97;4172849;28;20033;-66
2023/09/14 03:51:30;;;;;;;;;;;;;;;17.65;65.94;101600.94;4170480;28;20075;-66
2023/09/14 03:53:34;;;;;;;;;;;;;;;17.63;65.77;101600.31;4176730;28;20023;-67
2023/09/14 03:55:36;;;;;;;;;;;;;;;17.62;65.85;101609.53;4171791;28;20019;-65
2023/09/14 03:57:37;;;;;;;;;;;;;;;17.61;66.10;101604.28;4172219;28;20011;-66
2023/09/14 03:59:39;;;;;;;;;;;;;;;17.57;65.96;101603.84;4186905;28;19924;-65
2023/09/14 04:01:41;;;;;;;;;;;;;;;17.56;65.89;101607.59;4170447;28;19964;-65
2023/09/14 04:03:43;;;;;;;;;;;;;;;17.54;65.89;101604.25;4171547;28;20004;-66
2023/09/14 04:05:44;;;;;;;;;;;;;;;17.53;66.22;101608.00;4171448;28;20032;-66
2023/09/14 04:07:46;;;;;;;;;;;;;;;17.50;65.99;101613.88;4172702;28;20027;-66
2023/09/14 04:09:50;;;;;;;;;;;;;;;17.47;66.12;101617.84;4187173;28;20023;-66
2023/09/14 04:11:52;;;;;;;;;;;;;;;17.47;66.27;101622.47;4170064;28;20011;-66
2023/09/14 04:13:56;;;;;;;;;;;;;;;17.43;66.21;101624.78;4186709;28;20011;-66
2023/09/14 04:15:57;;;;;;;;;;;;;;;17.41;66.15;101623.28;4185765;28;20064;-66
2023/09/14 04:17:59;;;;;;;;;;;;;;;17.38;66.27;101616.34;4170001;28;20016;-67
2023/09/14 04:20:05;;;;;;;;;;;;;;;17.38;66.33;101612.75;4169786;28;19935;-66
2023/09/14 04:22:07;;;;;;;;;;;;;;;17.37;66.00;101622.00;4184464;28;20024;-66
2023/09/14 04:24:09;;;;;;;;;;;;;;;17.33;65.88;101624.28;4171424;28;20036;-66
2023/09/14 04:26:12;;;;;;;;;;;;;;;17.29;65.76;101628.47;4176927;28;20028;-66
2023/09/14 04:28:13;;;;;;;;;;;;;;;17.26;65.90;101626.97;4169911;28;20031;-66
2023/09/14 04:30:15;;;;;;;;;;;;;;;17.24;65.89;101631.81;4175459;28;20068;-66
2023/09/14 04:32:17;;;;;;;;;;;;;;;17.22;66.01;101633.03;4170989;28;20016;-66
2023/09/14 04:34:19;;;;;;;;;;;;;;;17.22;66.17;101635.75;4171457;28;20450;-66
2023/09/14 04:36:22;;;;;;;;;;;;;;;17.18;66.23;101635.31;4171615;28;20007;-67
2023/09/14 04:38:24;;;;;;;;;;;;;;;17.16;66.31;101637.38;4176256;28;20035;-65
2023/09/14 04:40:26;;;;;;;;;;;;;;;17.15;66.48;101637.59;4171503;28;19928;-66
2023/09/14 04:42:29;;;;;;;;;;;;;;;17.11;66.42;101631.69;4175223;28;20019;-66
2023/09/14 04:44:31;;;;;;;;;;;;;;;17.09;66.26;101633.78;4177362;28;20027;-66
2023/09/14 04:46:34;;;;;;;;;;;;;;;17.09;66.37;101641.97;4171195;28;20015;-66
2023/09/14 04:48:38;;;;;;;;;;;;;;;17.08;66.71;101637.53;4170403;28;20020;-65
2023/09/14 04:50:41;;;;;;;;;;;;;;;17.07;66.30;101638.59;4185102;28;20032;-66
2023/09/14 04:52:43;;;;;;;;;;;;;;;17.07;66.40;101649.53;4169686;28;20043;-65
2023/09/14 04:54:45;;;;;;;;;;;;;;;17.05;66.27;101648.84;4168972;28;20024;-66
2023/09/14 04:56:47;;;;;;;;;;;;;;;17.02;66.14;101646.53;4170404;28;20011;-66
2023/09/14 04:58:50;;;;;;;;;;;;;;;16.97;66.27;101649.84;4176948;28;20406;-64
2023/09/14 05:00:53;;;;;;;;;;;;;;;16.92;65.93;101658.63;4175223;28;20019;-66
2023/09/14 05:02:55;;;;;;;;;;;;;;;16.89;65.86;101660.91;4170247;28;20011;-65
2023/09/14 05:04:57;;;;;;;;;;;;;;;16.85;66.00;101665.88;4176691;28;20035;-66
2023/09/14 05:06:59;;;;;;;;;;;;;;;16.81;66.13;101667.31;4185618;28;20010;-66
2023/09/14 05:09:01;;;;;;;;;;;;;;;16.76;66.29;101665.16;4186152;28;20374;-66
2023/09/14 05:11:04;;;;;;;;;;;;;;;16.71;66.41;101670.38;4169625;28;20012;-65
2023/09/14 05:13:07;;;;;;;;;;;;;;;16.68;66.62;101675.38;4175704;28;20027;-66
2023/09/14 05:15:10;;;;;;;;;;;;;;;16.64;66.55;101676.81;4170492;28;20015;-66
2023/09/14 05:17:14;;;;;;;;;;;;;;;16.61;66.79;101677.19;4184746;28;20023;-66
2023/09/14 05:19:17;;;;;;;;;;;;;;;16.56;67.04;101681.31;4167813;28;20399;-64
2023/09/14 05:21:19;;;;;;;;;;;;;;;16.53;67.08;101683.59;4167893;28;19925;-66
2023/09/14 05:23:22;;;;;;;;;;;;;;;16.47;67.34;101682.47;4166190;28;20040;-66
2023/09/14 05:25:25;;;;;;;;;;;;;;;16.44;67.68;101693.81;4184975;28;20023;-66
2023/09/14 05:27:28;;;;;;;;;;;;;;;16.38;67.50;101689.97;4169437;28;20667;-66
2023/09/14 05:29:30;;;;;;;;;;;;;;;16.36;67.81;101693.91;4170598;28;20019;-66
2023/09/14 05:31:33;;;;;;;;;;;;;;;16.34;68.32;101698.72;4176093;28;20029;-66
2023/09/14 05:33:35;;;;;;;;;;;;;;;16.32;67.96;101692.63;4169528;28;20019;-66
2023/09/14 05:35:37;;;;;;;;;;;;;;;16.30;68.08;101698.25;4169480;28;20020;-66
2023/09/14 05:37:39;;;;;;;;;;;;;;;16.32;68.35;101695.34;4168506;28;20051;-66
2023/09/14 05:39:41;;;;;;;;;;;;;;;16.30;68.18;101703.72;4168140;28;20023;-65
2023/09/14 05:41:43;;;;;;;;;;;;;;;16.29;68.17;101704.75;4167969;28;19979;-66
2023/09/14 05:43:46;;;;;;;;;;;;;;;16.28;68.39;101700.31;4185217;28;20023;-67
2023/09/14 05:45:50;;;;;;;;;;;;;;;16.27;68.40;101715.00;4175178;28;20154;-67
2023/09/14 05:47:54;;;;;;;;;;;;;;;16.26;68.43;101705.13;4175748;28;20123;-66
2023/09/14 05:49:56;;;;;;;;;;;;;;;16.28;68.48;101710.38;4159526;28;20015;-67
2023/09/14 05:51:58;;;;;;;;;;;;;;;16.27;68.46;101706.81;4168822;28;20031;-66
2023/09/14 05:53:59;;;;;;;;;;;;;;;16.25;68.73;101706.16;4176449;28;20564;-65
2023/09/14 05:56:01;;;;;;;;;;;;;;;16.25;68.71;101705.31;4184841;28;20023;-66
2023/09/14 05:58:04;;;;;;;;;;;;;;;16.23;68.47;101716.41;4169670;28;20031;-65
2023/09/14 06:00:12;;;;;;;;;;;;;;;16.24;68.83;101723.56;4173191;28;20025;-66
2023/09/14 06:02:26;;;;;;;;;;;;;;;16.26;68.79;101718.75;4168315;28;19925;-67
2023/09/14 06:04:30;;;;;;;;;;;;;;;16.28;68.79;101721.28;4169598;28;20027;-66
2023/09/14 06:06:32;;;;;;;;;;;;;;;16.30;68.83;101716.47;4169562;28;20338;-66
2023/09/14 06:08:35;;;;;;;;;;;;;;;16.33;68.78;101724.28;4183926;28;20024;-65
2023/09/14 06:10:38;;;;;;;;;;;;;;;16.34;68.68;101723.25;4173128;28;20024;-66
2023/09/14 06:12:39;;;;;;;;;;;;;;;16.34;69.00;101721.34;4169770;28;20023;-66
2023/09/14 06:14:41;;;;;;;;;;;;;;;16.38;68.87;101727.28;4168685;28;20031;-66
2023/09/14 06:16:43;;;;;;;;;;;;;;;16.39;68.72;101727.09;4169747;28;20016;-66
2023/09/14 06:18:46;;;;;;;;;;;;;;;16.39;68.64;101724.38;4170170;28;20015;-66
2023/09/14 06:20:49;;;;;;;;;;;;;;;16.39;68.45;101726.22;4170495;28;20670;-65
2023/09/14 06:22:51;;;;;;;;;;;;;;;16.40;68.77;101726.03;4171920;28;19936;-67
2023/09/14 06:24:53;;;;;;;;;;;;;;;16.41;68.58;101735.09;4173835;28;20028;-66
2023/09/14 06:26:57;;;;;;;;;;;;;;;16.39;68.52;101734.41;4173399;28;20047;-66
2023/09/14 06:29:00;;;;;;;;;;;;;;;16.42;68.42;101733.19;4173832;28;20371;-67
2023/09/14 06:31:02;;;;;;;;;;;;;;;16.42;68.43;101735.91;4171844;28;20028;-65
2023/09/14 06:33:05;;;;;;;;;;;;;;;16.43;68.50;101737.63;4170983;28;20015;-65
2023/09/14 06:35:08;;;;;;;;;;;;;;;16.43;68.55;101741.19;4172932;28;20434;-66
2023/09/14 06:37:12;;;;;;;;;;;;;;;16.45;68.38;101735.53;4173122;28;20477;-66
2023/09/14 06:39:14;;;;;;;;;;;;;;;16.47;68.65;101734.28;4172959;28;20004;-66
2023/09/14 06:41:15;;;;;;;;;;;;;;;16.51;68.59;101742.97;4171134;28;20470;-66
2023/09/14 06:43:17;;;;;;;;;;;;;;;16.52;68.35;101728.25;4172630;28;20431;-67
2023/09/14 06:45:19;;;;;;;;;;;;;;;16.54;68.35;101737.94;4172769;28;20027;-67
2023/09/14 06:47:21;;;;;;;;;;;;;;;16.56;68.20;101733.13;4172949;28;20486;-66
2023/09/14 06:49:24;;;;;;;;;;;;;;;16.60;68.29;101738.22;4172809;28;20039;-66
2023/09/14 06:51:28;;;;;;;;;;;;;;;16.63;68.01;101746.00;4173164;28;20028;-66
2023/09/14 06:53:31;;;;;;;;;;;;;;;16.66;68.24;101741.03;4172410;28;20383;-67
2023/09/14 06:55:37;;;;;;;;;;;;;;;16.68;67.95;101738.13;4172333;28;20011;-66
2023/09/14 06:57:40;;;;;;;;;;;;;;;16.71;67.83;101740.47;4172560;28;20027;-66
2023/09/14 06:59:42;;;;;;;;;;;;;;;16.74;67.43;101740.06;4171969;28;20381;-67
2023/09/14 07:01:48;;;;;;;;;;;;;;;16.80;67.46;101736.53;4172256;28;19929;-66
2023/09/14 07:03:50;;;;;;;;;;;;;;;16.84;67.35;101737.84;4172795;28;19932;-66
2023/09/14 07:05:52;;;;;;;;;;;;;;;16.87;67.00;101733.94;4171753;28;20028;-66
2023/09/14 07:07:54;;;;;;;;;;;;;;;16.90;67.11;101741.72;4172715;28;20394;-66
2023/09/14 07:09:57;;;;;;;;;;;;;;;16.95;66.94;101749.34;4171998;28;20039;-67
2023/09/14 07:11:59;;;;;;;;;;;;;;;16.97;66.72;101749.97;4172056;28;20032;-65
2023/09/14 07:14:03;;;;;;;;;;;;;;;17.00;66.49;101741.41;4172332;28;20016;-65
2023/09/14 07:16:05;;;;;;;;;;;;;;;17.02;66.77;101751.09;4172506;28;20399;-67
2023/09/14 07:18:07;;;;;;;;;;;;;;;17.05;66.19;101752.56;4172708;28;20023;-66
2023/09/14 07:20:09;;;;;;;;;;;;;;;17.08;66.03;101747.59;4172029;28;20418;-67
2023/09/14 07:22:11;;;;;;;;;;;;;;;17.10;66.19;101748.22;4171945;28;20413;-66
2023/09/14 07:24:13;;;;;;;;;;;;;;;17.13;66.13;101760.59;4171856;28;20011;-67
2023/09/14 07:26:17;;;;;;;;;;;;;;;17.17;65.98;101751.00;4173014;28;20032;-66
2023/09/14 07:28:19;;;;;;;;;;;;;;;17.20;65.76;101757.97;4172748;28;20055;-66
2023/09/14 07:30:21;;;;;;;;;;;;;;;17.24;65.73;101765.56;4171811;28;20015;-66
2023/09/14 07:32:23;;;;;;;;;;;;;;;17.29;65.77;101770.44;4171895;28;20023;-67
2023/09/14 07:34:25;;;;;;;;;;;;;;;17.33;65.49;101768.16;4171838;28;20052;-67
2023/09/14 07:36:28;;;;;;;;;;;;;;;17.36;65.58;101765.88;4172369;28;20443;-67
2023/09/14 07:38:30;;;;;;;;;;;;;;;17.41;65.25;101782.53;4172337;28;20007;-66
2023/09/14 07:40:31;;;;;;;;;;;;;;;17.46;65.35;101777.31;4171836;28;20015;-66
2023/09/14 07:42:34;;;;;;;;;;;;;;;17.51;65.14;101773.13;4171511;28;19932;-67
2023/09/14 07:44:36;;;;;;;;;;;;;;;17.53;64.94;101769.16;4171548;28;19925;-66
2023/09/14 07:46:39;;;;;;;;;;;;;;;17.56;64.52;101776.94;4170951;28;20563;-65
2023/09/14 07:48:42;;;;;;;;;;;;;;;17.60;64.73;101786.44;4165828;28;20028;-66
2023/09/14 07:50:44;;;;;;;;;;;;;;;17.63;64.47;101780.59;4172358;28;20004;-65
2023/09/14 07:52:46;;;;;;;;;;;;;;;17.68;64.53;101781.88;4171626;28;20463;-66
2023/09/14 07:54:48;;;;;;;;;;;;;;;17.70;63.47;101788.84;4171422;28;20016;-66
2023/09/14 07:56:50;;;;;;;;;;;;;;;17.74;63.43;101783.81;4171000;28;20015;-65
2023/09/14 07:58:55;;;;;;;;;;;;;;;17.77;63.32;101781.53;4170271;28;20008;-66
2023/09/14 08:00:57;;;;;;;;;;;;;;;17.80;63.26;101791.22;4171699;28;20029;-65
2023/09/14 08:03:00;;;;;;;;;;;;;;;17.85;63.64;101796.91;4171641;28;20024;-65
2023/09/14 08:05:02;;;;;;;;;;;;;;;17.90;63.52;101796.34;4171455;28;19936;-65
2023/09/14 08:07:04;;;;;;;;;;;;;;;17.94;63.08;101795.75;4171977;28;20019;-65
2023/09/14 08:09:06;;;;;;;;;;;;;;;18.00;63.09;101802.31;4171829;28;20019;-66
2023/09/14 08:11:08;;;;;;;;;;;;;;;18.03;62.65;101796.44;4170180;28;20051;-66
2023/09/14 08:13:10;;;;;;;;;;;;;;;18.09;62.52;101803.84;4171441;28;20039;-66
2023/09/14 08:15:15;;;;;;;;;;;;;;;18.14;62.47;101805.97;4171775;28;20378;-66
2023/09/14 08:17:17;;;;;;;;;;;;;;;18.19;62.52;101800.72;4171989;28;20036;-65
2023/09/14 08:19:20;;;;;;;;;;;;;;;18.23;62.29;101801.16;4172288;28;20007;-66
2023/09/14 08:21:22;;;;;;;;;;;;;;;18.26;61.86;101798.91;4170983;28;20039;-65
2023/09/14 08:23:24;;;;;;;;;;;;;;;18.31;61.82;101806.50;4172610;28;20375;-65
2023/09/14 08:25:26;;;;;;;;;;;;;;;18.34;61.87;101793.25;4172107;28;19976;-65
2023/09/14 08:27:29;;;;;;;;;;;;;;;18.39;61.53;101792.63;4171064;28;20443;-66
2023/09/14 08:29:31;;;;;;;;;;;;;;;18.44;61.47;101790.13;4170620;28;20032;-66
2023/09/14 08:31:34;;;;;;;;;;;;;;;18.48;60.73;101793.28;4171025;28;20040;-67
2023/09/14 08:33:41;;;;;;;;;;;;;;;18.52;60.34;101794.59;4170194;28;19964;-66
2023/09/14 08:35:43;;;;;;;;;;;;;;;18.60;61.42;101796.28;4171693;28;20019;-66
2023/09/14 08:37:45;;;;;;;;;;;;;;;18.68;61.57;101798.84;4171712;28;20035;-66
2023/09/14 08:39:47;;;;;;;;;;;;;;;18.76;61.37;101787.72;4170948;28;20093;-66
2023/09/14 08:41:48;;;;;;;;;;;;;;;18.86;61.18;101793.66;4170205;28;20020;-66
2023/09/14 08:43:50;;;;;;;;;;;;;;;18.97;61.01;101797.69;4170612;28;20024;-65
2023/09/14 08:45:53;;;;;;;;;;;;;;;19.07;60.92;101800.91;4171295;28;20379;-65
2023/09/14 08:47:57;;;;;;;;;;;;;;;19.19;60.53;101808.50;4169480;28;20015;-65
2023/09/14 08:49:59;;;;;;;;;;;;;;;19.30;59.95;101804.28;4169936;28;20031;-66
2023/09/14 08:52:02;;;;;;;;;;;;;;;19.40;59.60;101802.81;4170907;28;20028;-66
2023/09/14 08:54:04;;;;;;;;;;;;;;;19.52;59.59;101808.50;4171379;28;20015;-66
2023/09/14 08:56:07;;;;;;;;;;;;;;;19.61;59.07;101801.75;4170985;28;20063;-64
2023/09/14 08:58:09;;;;;;;;;;;;;;;19.71;58.72;101806.81;4171667;28;20032;-67
2023/09/14 09:00:15;;;;;;;;;;;;;;;19.80;58.58;101805.56;4170063;28;20019;-65
2023/09/14 09:02:17;;;;;;;;;;;;;;;19.89;58.08;101800.72;4170115;28;20043;-66
2023/09/14 09:04:20;;;;;;;;;;;;;;;19.96;57.83;101800.69;4171308;28;20023;-66
2023/09/14 09:06:22;;;;;;;;;;;;;;;20.01;57.67;101797.31;4186474;28;19983;-66
2023/09/14 09:08:25;;;;;;;;;;;;;;;20.05;57.58;101801.31;4171544;28;20463;-65
2023/09/14 09:10:27;;;;;;;;;;;;;;;20.09;57.16;101808.88;4170386;28;20032;-67
2023/09/14 09:12:29;;;;;;;;;;;;;;;20.12;57.21;101811.19;4170336;28;20027;-65
2023/09/14 09:14:32;;;;;;;;;;;;;;;20.14;57.11;101802.75;4170873;28;20052;-66
2023/09/14 09:16:34;;;;;;;;;;;;;;;20.17;57.07;101805.06;4170429;28;20381;-65
2023/09/14 09:18:37;;;;;;;;;;;;;;;20.19;56.80;101808.47;4170278;28;20016;-66
2023/09/14 09:20:41;;;;;;;;;;;;;;;20.21;56.54;101808.25;4170657;28;20023;-66
2023/09/14 09:22:43;;;;;;;;;;;;;;;20.23;56.67;101808.84;4170584;28;20366;-66
2023/09/14 09:24:45;;;;;;;;;;;;;;;20.26;56.46;101812.00;4171042;28;20036;-66
2023/09/14 09:26:47;;;;;;;;;;;;;;;20.27;56.30;101810.97;4170312;28;19933;-66
2023/09/14 09:28:48;;;;;;;;;;;;;;;20.28;56.43;101809.06;4170847;28;20049;-64
2023/09/14 09:30:53;;;;;;;;;;;;;;;20.26;56.12;101814.75;4170607;28;19939;-65
2023/09/14 09:32:56;;;;;;;;;;;;;;;20.26;56.11;101814.75;4169726;28;20008;-65
2023/09/14 09:35:01;;;;;;;;;;;;;;;20.26;56.13;101806.53;4171109;28;20440;-65
2023/09/14 09:37:04;;;;;;;;;;;;;;;20.26;56.10;101813.91;4169982;28;20024;-66
2023/09/14 09:39:06;;;;;;;;;;;;;;;20.27;55.94;101801.91;4170721;28;20024;-65
2023/09/14 09:41:09;;;;;;;;;;;;;;;20.27;56.06;101805.47;4170043;28;20025;-66
2023/09/14 09:43:14;;;;;;;;;;;;;;;20.28;55.96;101804.44;4170286;28;20364;-66
2023/09/14 09:45:17;;;;;;;;;;;;;;;20.29;56.07;101814.31;4169813;28;20016;-65
2023/09/14 09:47:20;;;;;;;;;;;;;;;20.29;56.10;101811.56;4170508;28;19975;-65
2023/09/14 09:49:22;;;;;;;;;;;;;;;20.30;55.86;101820.66;4169218;28;20012;-66
2023/09/14 09:51:25;;;;;;;;;;;;;;;20.28;55.82;101818.13;4170402;28;20023;-65
2023/09/14 09:53:28;;;;;;;;;;;;;;;20.29;55.83;101818.97;4170925;28;20031;-66
2023/09/14 09:55:31;;;;;;;;;;;;;;;20.29;55.79;101810.75;4171231;28;20467;-64
2023/09/14 09:57:35;;;;;;;;;;;;;;;20.30;55.43;101826.16;4173164;28;20015;-65
2023/09/14 09:59:37;;;;;;;;;;;;;;;20.32;55.54;101824.03;4178874;28;20071;-65
2023/09/14 10:01:41;;;;;;;;;;;;;;;20.32;55.48;101821.28;4173270;28;20032;-66
2023/09/14 10:03:43;;;;;;;;;;;;;;;20.33;55.33;101820.25;4173419;28;20047;-66
2023/09/14 10:05:46;;;;;;;;;;;;;;;20.33;55.50;101820.25;4174272;28;20602;-66
2023/09/14 10:07:48;;;;;;;;;;;;;;;20.32;55.46;101815.78;4172829;28;19929;-66
2023/09/14 10:09:53;;;;;;;;;;;;;;;20.31;55.58;101814.97;4173484;28;20043;-66
2023/09/14 10:11:55;;;;;;;;;;;;;;;20.31;55.23;101814.97;4173144;28;20013;-64
2023/09/14 10:13:57;;;;;;;;;;;;;;;20.31;55.43;101817.72;4173368;28;20405;-65
2023/09/14 10:15:59;;;;;;;;;;;;;;;20.33;55.44;101812.84;4172959;28;20012;-67
2023/09/14 10:18:00;;;;;;;;;;;;;;;20.34;55.30;101811.78;4173853;28;20377;-66
2023/09/14 10:20:05;;;;;;;;;;;;;;;20.35;55.31;101813.47;4173050;28;20040;-65
2023/09/14 10:22:08;;;;;;;;;;;;;;;20.36;55.12;101814.31;4172969;28;20019;-65
2023/09/14 10:24:10;;;;;;;;;;;;;;;20.37;55.10;101815.97;4174131;28;20390;-65
2023/09/14 10:26:13;;;;;;;;;;;;;;;20.38;55.04;101805.88;4174064;28;20032;-66
2023/09/14 10:28:15;;;;;;;;;;;;;;;20.37;54.78;101807.75;4172483;28;20028;-65